Time;durP1;ratioP1;P1;durP2;ratioP2;P2;SDS_P1;SDS_P2;PMS_P1;PMS_P2;Temp;Humidity;BMP_temperature;BMP_pressure;BME280_temperature;BME280_humidity;BME280_pressure;Samples;Min_cycle;Max_cycle;Signal;HPM_P1;HPM_P2
2021/04/23 00:02:16;;;;;;;14.23;4.50;;;5.50;99.90;;;;;;4948805;29;20516;-64
2021/04/23 00:04:42;;;;;;;12.98;4.50;;;5.50;99.90;;;;;;4947909;28;21305;-70
2021/04/23 00:07:08;;;;;;;12.33;4.50;;;5.40;99.90;;;;;;4948186;28;20402;-70
2021/04/23 00:09:35;;;;;;;11.43;4.72;;;5.20;99.90;;;;;;4947763;29;20397;-71
2021/04/23 00:12:10;;;;;;;12.77;4.57;;;5.20;99.90;;;;;;4948954;28;20477;-70
2021/04/23 00:14:40;;;;;;;13.40;5.70;;;5.10;99.90;;;;;;4946365;29;20401;-70
2021/04/23 00:17:06;;;;;;;10.23;4.78;;;4.90;99.90;;;;;;4948497;28;20410;-69
2021/04/23 00:19:32;;;;;;;14.93;4.95;;;5.40;99.90;;;;;;4947796;28;20394;-70
2021/04/23 00:21:58;;;;;;;11.05;4.53;;;4.80;99.90;;;;;;4948763;28;20425;-71
2021/04/23 00:24:25;;;;;;;11.52;4.47;;;5.60;99.90;;;;;;4947993;28;20414;-62
2021/04/23 00:26:51;;;;;;;12.55;4.70;;;4.80;99.90;;;;;;4947038;29;20499;-71
2021/04/23 00:29:17;;;;;;;13.85;4.95;;;4.80;99.90;;;;;;4950391;28;20476;-71
2021/04/23 00:31:44;;;;;;;11.57;4.90;;;4.70;99.90;;;;;;4950670;28;20464;-71
2021/04/23 00:34:10;;;;;;;10.30;4.88;;;4.60;99.90;;;;;;4951602;28;20393;-71
2021/04/23 00:36:36;;;;;;;12.47;4.73;;;4.60;99.90;;;;;;4950750;29;20755;-71
2021/04/23 00:39:03;;;;;;;12.70;4.55;;;4.50;99.90;;;;;;4951663;28;20952;-70
2021/04/23 00:41:32;;;;;;;13.98;4.70;;;4.40;99.90;;;;;;4950906;28;20390;-69
2021/04/23 00:43:57;;;;;;;9.80;4.68;;;4.30;99.90;;;;;;4951439;28;20386;-71
2021/04/23 00:46:34;;;;;;;13.27;5.00;;;4.30;99.90;;;;;;4951732;29;20828;-71
2021/04/23 00:49:01;;;;;;;10.68;4.63;;;4.30;99.90;;;;;;4950305;29;20580;-71
2021/04/23 00:51:44;;;;;;;11.27;4.60;;;4.40;99.90;;;;;;4951041;28;20433;-62
2021/04/23 00:54:10;;;;;;;15.40;4.78;;;4.50;99.90;;;;;;4951466;28;20463;-70
2021/04/23 00:56:38;;;;;;;11.00;4.60;;;4.50;99.90;;;;;;4950440;29;20418;-70
2021/04/23 00:59:06;;;;;;;11.68;4.38;;;6.20;99.90;;;;;;4951591;28;20402;-71
2021/04/23 01:01:39;;;;;;;10.00;4.20;;;4.50;99.90;;;;;;4950879;28;20402;-70
2021/04/23 01:04:06;;;;;;;11.38;4.32;;;4.40;99.90;;;;;;4951398;29;20455;-71
2021/04/23 01:06:34;;;;;;;11.32;4.45;;;4.50;99.90;;;;;;4950448;28;20964;-71
2021/04/23 01:09:09;;;;;;;14.75;4.95;;;4.50;99.90;;;;;;4951159;28;20513;-70
2021/04/23 01:11:35;;;;;;;14.30;5.20;;;4.50;99.90;;;;;;4950449;28;20405;-70
2021/04/23 01:14:00;;;;;;;13.02;4.90;;;4.40;99.90;;;;;;4951120;28;20386;-71
2021/04/23 01:16:26;;;;;;;13.40;4.87;;;4.40;99.90;;;;;;4950600;28;20737;-62
2021/04/23 01:18:53;;;;;;;12.00;5.25;;;4.30;99.90;;;;;;4950944;28;20425;-70
2021/04/23 01:21:28;;;;;;;13.75;5.30;;;4.30;99.90;;;;;;4950968;29;20394;-71
2021/04/23 01:23:56;;;;;;;13.60;5.20;;;4.30;99.90;;;;;;4950854;28;20581;-71
2021/04/23 01:26:30;;;;;;;12.23;5.97;;;4.50;99.90;;;;;;4951025;28;20392;-71
2021/04/23 01:28:56;;;;;;;12.35;4.80;;;5.10;99.90;;;;;;4950556;28;20781;-69
2021/04/23 01:31:28;;;;;;;10.80;4.93;;;4.10;99.90;;;;;;4951693;28;20405;-69
2021/04/23 01:34:01;;;;;;;14.88;5.30;;;4.30;99.90;;;;;;4951432;28;20383;-71
2021/04/23 01:36:27;;;;;;;14.70;4.60;;;4.20;99.90;;;;;;4950006;28;20476;-62
2021/04/23 01:38:53;;;;;;;12.25;4.53;;;4.20;99.90;;;;;;4950481;28;20410;-71
2021/04/23 01:41:20;;;;;;;13.30;4.82;;;4.20;99.90;;;;;;4950366;28;20405;-71
2021/04/23 01:43:49;;;;;;;12.52;4.20;;;4.20;99.90;;;;;;4949971;28;20390;-72
2021/04/23 01:46:16;;;;;;;14.67;4.43;;;4.20;99.90;;;;;;4950769;28;20437;-71
2021/04/23 01:48:42;;;;;;;12.25;4.35;;;4.60;99.90;;;;;;4949544;28;20493;-71
2021/04/23 01:51:12;;;;;;;13.50;4.82;;;4.30;99.90;;;;;;4949293;29;20540;-71
2021/04/23 01:53:39;;;;;;;11.90;4.20;;;4.30;99.90;;;;;;4949469;28;20425;-70
2021/04/23 01:56:05;;;;;;;10.38;4.30;;;4.10;99.90;;;;;;4950279;28;20409;-72
2021/04/23 01:58:32;;;;;;;12.55;4.90;;;4.00;99.90;;;;;;4949485;28;20395;-70
2021/04/23 02:00:58;;;;;;;9.93;4.30;;;5.00;99.90;;;;;;4950090;28;20390;-72
2021/04/23 02:03:24;;;;;;;11.30;4.50;;;4.00;99.90;;;;;;4949988;28;20962;-72
2021/04/23 02:05:53;;;;;;;10.63;3.97;;;4.00;99.90;;;;;;4949426;28;20421;-72
2021/04/23 02:08:22;;;;;;;11.55;4.20;;;3.90;99.90;;;;;;4949871;28;20426;-72
2021/04/23 02:11:01;;;;;;;11.10;4.40;;;4.70;99.90;;;;;;4949284;29;20425;-71
2021/04/23 02:13:27;;;;;;;12.60;4.43;;;3.90;99.90;;;;;;4949929;28;20382;-62
2021/04/23 02:15:54;;;;;;;16.10;4.60;;;3.90;99.90;;;;;;4949808;29;20409;-72
2021/04/23 02:18:21;;;;;;;9.77;4.18;;;3.80;99.90;;;;;;4950306;28;20452;-72
2021/04/23 02:20:46;;;;;;;10.52;4.22;;;3.70;99.90;;;;;;4949018;28;20552;-72
2021/04/23 02:23:13;;;;;;;13.33;4.20;;;3.70;99.90;;;;;;4950333;28;20620;-71
2021/04/23 02:25:40;;;;;;;10.80;4.30;;;3.50;99.90;;;;;;4949048;28;20440;-71
2021/04/23 02:28:08;;;;;;;10.75;4.30;;;3.60;99.90;;;;;;4949839;28;20737;-73
2021/04/23 02:30:40;;;;;;;10.13;4.40;;;3.50;99.90;;;;;;4949487;28;20394;-69
2021/04/23 02:33:08;;;;;;;16.95;4.88;;;3.40;99.90;;;;;;4949485;28;20402;-69
2021/04/23 02:35:35;;;;;;;10.63;4.70;;;3.40;99.90;;;;;;4948998;28;20398;-72
2021/04/23 02:38:01;;;;;;;11.73;4.45;;;3.40;99.90;;;;;;4949389;29;20417;-69
2021/04/23 02:40:28;;;;;;;9.65;4.50;;;3.80;99.90;;;;;;4949671;29;20417;-63
2021/04/23 02:42:57;;;;;;;12.43;4.68;;;3.30;99.90;;;;;;4949474;28;20430;-71
2021/04/23 02:45:27;;;;;;;12.70;4.90;;;3.40;99.90;;;;;;4949472;28;21063;-72
2021/04/23 02:47:53;;;;;;;10.98;5.13;;;3.40;99.90;;;;;;4932064;29;20445;-72
2021/04/23 02:50:22;;;;;;;11.98;4.72;;;3.30;99.90;;;;;;4949816;28;20390;-73
2021/04/23 02:52:48;;;;;;;10.23;4.63;;;3.30;99.90;;;;;;4947869;28;20420;-70
2021/04/23 02:55:15;;;;;;;11.40;4.20;;;3.20;99.90;;;;;;4949866;28;20874;-72
2021/04/23 02:57:52;;;;;;;14.70;4.88;;;3.20;99.90;;;;;;4948726;28;20410;-73
2021/04/23 03:00:18;;;;;;;12.23;5.03;;;4.70;99.90;;;;;;4949698;29;20472;-71
2021/04/23 03:02:44;;;;;;;14.27;5.35;;;3.10;99.90;;;;;;4948744;28;20863;-70
2021/04/23 03:05:10;;;;;;;12.18;4.80;;;3.10;99.90;;;;;;4949610;28;20486;-68
2021/04/23 03:07:36;;;;;;;11.23;4.80;;;3.00;99.90;;;;;;4948485;28;20426;-68
2021/04/23 03:10:03;;;;;;;13.10;4.73;;;5.50;99.90;;;;;;4949088;28;20436;-70
2021/04/23 03:12:29;;;;;;;12.17;5.10;;;2.90;99.90;;;;;;4949039;28;20415;-60
2021/04/23 03:14:55;;;;;;;13.50;5.50;;;2.80;99.90;;;;;;4949291;29;20467;-70
2021/04/23 03:17:22;;;;;;;12.93;4.82;;;2.90;99.90;;;;;;4949054;28;20898;-70
2021/04/23 03:19:48;;;;;;;10.40;4.70;;;2.90;99.90;;;;;;4947994;28;20898;-63
2021/04/23 03:22:14;;;;;;;13.48;4.70;;;2.90;99.90;;;;;;4949417;28;20433;-70
2021/04/23 03:24:39;;;;;;;17.33;5.40;;;2.90;99.90;;;;;;4948660;28;20422;-72
2021/04/23 03:27:05;;;;;;;14.27;4.80;;;5.10;99.90;;;;;;4949333;28;20466;-71
2021/04/23 03:29:31;;;;;;;14.20;4.70;;;2.80;99.90;;;;;;4948504;28;20394;-62
2021/04/23 03:31:57;;;;;;;17.02;4.80;;;2.70;99.90;;;;;;4949102;28;20402;-69
2021/04/23 03:34:23;;;;;;;12.85;4.80;;;2.60;99.90;;;;;;4949328;28;20402;-67
2021/04/23 03:36:48;;;;;;;13.57;5.20;;;2.70;99.90;;;;;;4948217;28;20419;-71
2021/04/23 03:39:14;;;;;;;10.70;4.40;;;4.30;99.90;;;;;;4947951;29;20453;-71
2021/04/23 03:41:41;;;;;;;13.50;5.03;;;2.60;99.90;;;;;;4948289;28;20390;-71
2021/04/23 03:44:07;;;;;;;12.70;4.97;;;2.50;99.90;;;;;;4948576;28;20935;-71
2021/04/23 03:46:34;;;;;;;15.90;5.35;;;2.60;99.90;;;;;;4947850;29;20404;-71
2021/04/23 03:48:59;;;;;;;10.10;5.20;;;2.60;99.90;;;;;;4948897;29;20386;-72
2021/04/23 03:51:26;;;;;;;15.25;5.40;;;3.00;99.90;;;;;;4948872;28;20386;-71
2021/04/23 03:53:52;;;;;;;13.80;5.22;;;4.10;99.90;;;;;;4947958;29;20390;-71
2021/04/23 03:56:19;;;;;;;16.25;6.00;;;2.60;99.90;;;;;;4948772;28;20922;-71
2021/04/23 03:58:46;;;;;;;12.95;5.00;;;3.30;99.90;;;;;;4946274;29;20402;-71
2021/04/23 04:01:18;;;;;;;16.17;5.90;;;2.60;99.90;;;;;;4948232;29;20382;-72
2021/04/23 04:03:45;;;;;;;14.18;5.20;;;3.60;99.90;;;;;;4949035;28;20444;-72
2021/04/23 04:06:11;;;;;;;13.00;5.60;;;2.60;99.90;;;;;;4952237;28;20397;-71
2021/04/23 04:08:36;;;;;;;11.63;5.53;;;3.00;99.90;;;;;;4951161;29;20883;-71
2021/04/23 04:11:04;;;;;;;11.82;5.07;;;4.80;99.90;;;;;;4951963;28;20396;-70
2021/04/23 04:13:30;;;;;;;12.77;4.93;;;2.90;99.90;;;;;;4951800;28;20449;-61
2021/04/23 04:15:55;;;;;;;13.03;5.57;;;2.50;99.90;;;;;;4951732;29;20828;-72
2021/04/23 04:18:23;;;;;;;13.23;5.40;;;2.40;99.90;;;;;;4950500;29;20415;-71
2021/04/23 04:20:50;;;;;;;15.40;5.50;;;2.50;99.90;;;;;;4950895;28;20501;-72
2021/04/23 04:23:18;;;;;;;15.00;6.10;;;4.50;99.90;;;;;;4959463;28;20394;-71
2021/04/23 04:25:48;;;;;;;14.55;5.28;;;2.40;99.90;;;;;;4960695;28;20401;-71
2021/04/23 04:28:14;;;;;;;22.27;5.60;;;2.50;99.90;;;;;;4959474;28;20457;-71
2021/04/23 04:30:41;;;;;;;12.88;5.30;;;2.50;99.90;;;;;;4967574;28;20509;-70
2021/04/23 04:33:09;;;;;;;10.77;5.00;;;2.60;99.90;;;;;;4970692;28;20381;-71
2021/04/23 04:35:34;;;;;;;10.87;4.80;;;2.60;99.90;;;;;;4968942;28;20384;-67
2021/04/23 04:38:01;;;;;;;11.20;5.07;;;2.70;99.90;;;;;;4970550;28;20410;-71
2021/04/23 04:40:28;;;;;;;14.80;5.30;;;4.70;99.90;;;;;;4970748;28;20392;-71
2021/04/23 04:42:55;;;;;;;13.57;5.45;;;2.80;99.90;;;;;;4970131;28;20400;-72
2021/04/23 04:45:23;;;;;;;12.65;5.13;;;2.80;99.90;;;;;;4970664;28;20396;-72
2021/04/23 04:47:49;;;;;;;14.40;4.72;;;3.10;99.90;;;;;;4969989;28;20388;-72
2021/04/23 04:50:19;;;;;;;14.60;5.38;;;3.70;99.90;;;;;;4970872;28;20939;-73
2021/04/23 04:52:46;;;;;;;11.87;4.87;;;4.80;99.90;;;;;;4970093;28;20392;-70
2021/04/23 04:55:13;;;;;;;13.77;4.87;;;4.50;99.90;;;;;;4970706;28;20424;-73
2021/04/23 04:57:39;;;;;;;14.90;5.05;;;5.10;99.90;;;;;;4969697;28;20824;-67
2021/04/23 05:00:07;;;;;;;13.02;5.05;;;5.80;99.90;;;;;;4970548;28;20399;-73
2021/04/23 05:02:33;;;;;;;11.02;5.13;;;6.40;99.90;;;;;;4969658;28;20453;-61
2021/04/23 05:04:59;;;;;;;11.18;4.97;;;7.00;99.90;;;;;;4970049;28;20479;-70
2021/04/23 05:07:25;;;;;;;12.57;5.20;;;7.30;99.90;;;;;;4970038;28;20625;-70
2021/04/23 05:09:51;;;;;;;12.23;4.90;;;7.40;99.90;;;;;;4969374;28;20395;-70
2021/04/23 05:12:16;;;;;;;11.80;5.10;;;7.70;99.90;;;;;;4970381;28;20392;-65
2021/04/23 05:14:42;;;;;;;15.80;5.37;;;7.90;99.90;;;;;;4969031;28;20384;-69
2021/04/23 05:17:07;;;;;;;12.00;5.18;;;8.10;99.90;;;;;;4969534;28;20462;-70
2021/04/23 05:19:33;;;;;;;14.60;5.70;;;8.40;99.90;;;;;;4969654;28;20450;-61
2021/04/23 05:21:59;;;;;;;15.23;6.00;;;8.80;99.90;;;;;;4969833;28;20704;-69
2021/04/23 05:24:24;;;;;;;14.27;5.47;;;9.40;99.50;;;;;;4969916;28;20479;-70
2021/04/23 05:26:50;;;;;;;11.60;4.97;;;9.70;98.30;;;;;;4969256;28;20392;-72
2021/04/23 05:29:16;;;;;;;13.93;5.40;;;10.20;96.40;;;;;;4969933;28;20397;-71
2021/04/23 05:31:41;;;;;;;10.80;4.80;;;11.30;94.40;;;;;;4969679;28;20406;-68
2021/04/23 05:34:07;;;;;;;11.65;6.03;;;12.30;90.50;;;;;;4969819;28;20471;-67
2021/04/23 05:36:33;;;;;;;13.73;5.60;;;12.80;83.90;;;;;;4969150;28;20420;-61
2021/04/23 05:38:59;;;;;;;12.63;5.57;;;13.30;82.30;;;;;;4967999;28;20638;-68
2021/04/23 05:41:25;;;;;;;14.43;6.40;;;14.00;76.60;;;;;;4950569;28;20807;-68
2021/04/23 05:43:50;;;;;;;13.20;5.45;;;14.60;74.00;;;;;;4949807;28;20633;-68
2021/04/23 05:46:20;;;;;;;14.27;5.90;;;15.40;68.30;;;;;;4955681;28;20942;-70
2021/04/23 05:48:46;;;;;;;12.10;6.40;;;16.20;64.20;;;;;;4959781;28;20943;-68
2021/04/23 05:51:13;;;;;;;13.70;6.55;;;17.40;59.20;;;;;;4961121;28;20924;-69
2021/04/23 05:53:39;;;;;;;14.15;8.10;;;18.20;54.50;;;;;;4955883;28;20404;-67
2021/04/23 05:56:04;;;;;;;13.63;8.30;;;18.40;53.20;;;;;;4957551;28;20957;-67
2021/04/23 05:58:30;;;;;;;11.98;7.70;;;18.90;51.50;;;;;;4960124;28;20408;-61
2021/04/23 06:00:56;;;;;;;11.80;7.43;;;18.40;50.60;;;;;;4968490;28;20393;-65
2021/04/23 06:03:22;;;;;;;15.30;7.37;;;18.40;50.50;;;;;;4954122;28;20417;-66
2021/04/23 06:05:48;;;;;;;14.40;7.00;;;19.00;50.20;;;;;;4948938;28;20911;-68
2021/04/23 06:08:14;;;;;;;13.98;7.32;;;18.90;48.90;;;;;;4949700;28;20516;-65
2021/04/23 06:10:42;;;;;;;11.55;6.82;;;19.10;48.00;;;;;;4954522;28;20381;-66
2021/04/23 06:13:08;;;;;;;18.30;7.47;;;18.80;48.00;;;;;;4968667;28;20752;-67
2021/04/23 06:15:34;;;;;;;14.40;7.18;;;19.20;47.60;;;;;;4965098;28;20397;-59
2021/04/23 06:18:00;;;;;;;15.57;7.17;;;19.60;46.80;;;;;;4968856;28;20392;-66
2021/04/23 06:20:29;;;;;;;14.10;7.13;;;19.80;46.40;;;;;;4968526;28;21192;-67
2021/04/23 06:22:55;;;;;;;11.98;6.60;;;18.70;47.00;;;;;;4968349;28;20423;-66
2021/04/23 06:25:21;;;;;;;13.82;7.05;;;18.70;46.70;;;;;;4968797;28;20389;-57
2021/04/23 06:27:47;;;;;;;13.20;6.90;;;19.00;47.60;;;;;;4948523;28;20452;-59
2021/04/23 06:30:16;;;;;;;14.60;6.40;;;20.00;45.60;;;;;;4966244;28;20390;-59
2021/04/23 06:32:43;;;;;;;12.80;6.60;;;20.50;44.80;;;;;;4968737;28;20445;-59
2021/04/23 06:35:16;;;;;;;12.27;6.72;;;21.20;43.80;;;;;;4968740;28;20479;-59
2021/04/23 06:37:42;;;;;;;15.48;7.20;;;20.90;43.00;;;;;;4967767;28;20440;-65
2021/04/23 06:40:09;;;;;;;12.65;6.80;;;21.10;42.30;;;;;;4968217;28;20439;-65
2021/04/23 06:42:35;;;;;;;13.40;6.60;;;20.90;41.80;;;;;;4968349;28;20412;-60
2021/04/23 06:45:02;;;;;;;11.73;6.20;;;20.50;42.30;;;;;;4968652;28;20388;-65
2021/04/23 06:47:31;;;;;;;13.25;6.30;;;20.20;42.50;;;;;;4968482;28;20505;-64
2021/04/23 06:49:56;;;;;;;13.18;6.72;;;19.20;43.60;;;;;;4968076;28;20389;-64
2021/04/23 06:52:22;;;;;;;12.25;6.78;;;19.20;44.70;;;;;;4968341;28;20399;-63
2021/04/23 06:54:48;;;;;;;13.20;6.97;;;20.10;44.60;;;;;;4967483;28;20383;-62
2021/04/23 06:57:13;;;;;;;15.13;7.37;;;19.90;44.50;;;;;;4968435;28;20885;-63
2021/04/23 06:59:39;;;;;;;15.60;7.70;;;19.70;44.80;;;;;;4967561;28;20408;-62
2021/04/23 07:02:05;;;;;;;12.23;6.20;;;19.30;45.30;;;;;;4960734;28;20580;-62
2021/04/23 07:04:30;;;;;;;17.15;6.75;;;19.00;45.70;;;;;;4949220;28;20482;-62
2021/04/23 07:06:56;;;;;;;14.52;6.75;;;18.70;46.60;;;;;;4966835;28;20423;-60
2021/04/23 07:09:22;;;;;;;15.38;6.50;;;18.70;46.50;;;;;;4965047;28;20481;-61
2021/04/23 07:11:47;;;;;;;13.30;6.40;;;19.00;46.60;;;;;;4958750;28;20747;-62
2021/04/23 07:14:13;;;;;;;15.23;6.80;;;18.80;46.30;;;;;;4962219;28;20404;-62
2021/04/23 07:16:39;;;;;;;15.10;6.32;;;19.10;46.30;;;;;;4955484;28;20913;-62
2021/04/23 07:19:05;;;;;;;13.27;6.50;;;19.20;45.20;;;;;;4956560;28;20401;-61
2021/04/23 07:21:30;;;;;;;13.17;6.40;;;20.30;44.50;;;;;;4957559;28;20869;-61
2021/04/23 07:23:56;;;;;;;13.23;6.67;;;20.60;43.80;;;;;;4957777;28;20440;-60
2021/04/23 07:26:22;;;;;;;11.77;6.10;;;22.00;43.00;;;;;;4956310;28;20493;-62
2021/04/23 07:28:47;;;;;;;11.43;6.93;;;22.30;42.10;;;;;;4957460;28;20388;-62
2021/04/23 07:31:13;;;;;;;15.52;7.15;;;21.80;42.20;;;;;;4961490;28;20404;-61
2021/04/23 07:33:39;;;;;;;14.38;6.57;;;21.60;42.00;;;;;;4959134;28;20417;-61
2021/04/23 07:36:05;;;;;;;11.93;5.90;;;20.90;42.50;;;;;;4957386;28;20444;-61
2021/04/23 07:38:31;;;;;;;14.48;6.57;;;20.60;42.70;;;;;;4958875;28;20505;-62
2021/04/23 07:40:58;;;;;;;16.83;6.65;;;20.80;42.90;;;;;;4961525;28;20511;-61
2021/04/23 07:43:24;;;;;;;13.60;6.35;;;21.70;41.20;;;;;;4962680;28;20448;-64
2021/04/23 07:45:50;;;;;;;12.25;5.88;;;21.80;41.20;;;;;;4957260;28;20929;-61
2021/04/23 07:48:15;;;;;;;11.35;6.30;;;21.90;40.80;;;;;;4963011;28;20427;-62
2021/04/23 07:50:41;;;;;;;14.63;6.50;;;21.70;40.90;;;;;;4953751;28;20918;-61
2021/04/23 07:53:06;;;;;;;15.47;6.60;;;21.70;40.50;;;;;;4951772;28;20386;-62
2021/04/23 07:55:32;;;;;;;13.67;6.83;;;20.60;41.40;;;;;;4964519;28;20442;-62
2021/04/23 07:57:58;;;;;;;15.23;6.80;;;20.90;41.50;;;;;;4963468;28;20936;-61
2021/04/23 08:00:25;;;;;;;12.57;6.15;;;21.40;41.40;;;;;;4960298;28;20430;-61
2021/04/23 08:02:52;;;;;;;15.68;6.55;;;21.80;41.40;;;;;;4959544;28;20422;-62
2021/04/23 08:05:19;;;;;;;13.57;6.75;;;23.30;40.00;;;;;;4962415;28;20442;-60
2021/04/23 08:07:45;;;;;;;13.52;6.50;;;23.20;38.80;;;;;;4958741;28;20467;-62
2021/04/23 08:10:12;;;;;;;12.82;6.95;;;23.60;38.80;;;;;;4955661;28;20406;-62
2021/04/23 08:12:39;;;;;;;13.18;5.70;;;23.60;38.60;;;;;;4959488;28;20396;-59
2021/04/23 08:15:06;;;;;;;15.30;7.55;;;23.30;38.20;;;;;;4959717;28;20450;-59
2021/04/23 08:17:32;;;;;;;12.38;6.03;;;23.00;38.80;;;;;;4963603;28;20413;-60
2021/04/23 08:19:57;;;;;;;11.10;5.80;;;23.60;38.90;;;;;;4962446;28;20397;-60
2021/04/23 08:22:23;;;;;;;13.43;5.90;;;23.50;38.40;;;;;;4960016;28;20406;-61
2021/04/23 08:24:48;;;;;;;14.90;6.40;;;23.10;38.80;;;;;;4958803;28;20481;-61
2021/04/23 08:27:14;;;;;;;14.50;6.10;;;22.90;38.80;;;;;;4960127;28;20400;-60
2021/04/23 08:29:40;;;;;;;14.47;6.20;;;23.30;38.80;;;;;;4960273;28;20394;-60
2021/04/23 08:32:05;;;;;;;14.00;6.40;;;23.80;37.40;;;;;;4964932;28;20751;-61
2021/04/23 08:34:31;;;;;;;14.03;6.10;;;22.90;37.60;;;;;;4959344;28;20745;-61
2021/04/23 08:36:57;;;;;;;14.75;6.50;;;22.10;39.00;;;;;;4963327;28;20423;-62
2021/04/23 08:39:22;;;;;;;13.52;6.50;;;22.50;39.50;;;;;;4967229;28;20971;-61
2021/04/23 08:41:48;;;;;;;12.35;6.32;;;22.70;39.10;;;;;;4963774;28;20434;-62
2021/04/23 08:44:14;;;;;;;15.50;6.65;;;22.50;39.40;;;;;;4963662;28;20458;-61
2021/04/23 08:46:40;;;;;;;13.20;5.93;;;22.80;38.30;;;;;;4959986;28;20855;-59
2021/04/23 08:49:07;;;;;;;13.43;6.43;;;23.10;37.90;;;;;;4953630;28;20424;-60
2021/04/23 08:51:35;;;;;;;16.02;6.60;;;23.70;37.80;;;;;;4950069;28;20390;-60
2021/04/23 08:54:01;;;;;;;13.50;6.10;;;24.40;36.20;;;;;;4964637;28;20878;-60
2021/04/23 08:56:28;;;;;;;11.18;6.30;;;23.90;35.50;;;;;;4958706;28;20491;-59
2021/04/23 08:58:54;;;;;;;12.23;6.25;;;24.10;35.40;;;;;;4958311;28;20876;-59
2021/04/23 09:01:20;;;;;;;12.70;6.13;;;24.50;34.40;;;;;;4954703;28;20386;-61
2021/04/23 09:03:46;;;;;;;15.88;6.03;;;24.50;33.60;;;;;;4961208;28;20398;-59
2021/04/23 09:06:21;;;;;;;16.05;6.50;;;24.20;34.50;;;;;;4960331;28;20396;-61
2021/04/23 09:08:56;;;;;;;12.20;6.50;;;25.10;33.90;;;;;;4960530;28;20447;-60
2021/04/23 09:11:35;;;;;;;12.55;6.18;;;25.90;32.90;;;;;;4960694;28;20399;-60
2021/04/23 09:14:09;;;;;;;13.23;6.22;;;25.40;33.20;;;;;;4957294;28;20459;-57
2021/04/23 09:17:02;;;;;;;12.13;5.75;;;26.20;33.10;;;;;;4960289;28;20499;-58
2021/04/23 09:19:30;;;;;;;17.75;5.70;;;26.70;32.20;;;;;;4960172;28;20396;-58
2021/04/23 09:22:02;;;;;;;11.80;6.20;;;27.30;31.30;;;;;;4955123;28;20782;-58
2021/04/23 09:24:32;;;;;;;14.30;7.82;;;27.50;31.00;;;;;;4959368;28;20421;-59
2021/04/23 09:27:07;;;;;;;14.30;6.38;;;28.20;30.20;;;;;;4958325;28;20432;-61
2021/04/23 09:29:35;;;;;;;14.95;6.60;;;28.60;30.10;;;;;;4958810;28;20390;-58
2021/04/23 09:32:33;;;;;;;14.73;6.90;;;26.90;30.50;;;;;;4959110;28;20389;-58
2021/04/23 09:35:16;;;;;;;13.48;6.30;;;26.60;30.80;;;;;;4960089;28;20711;-59
2021/04/23 09:37:52;;;;;;;11.02;6.28;;;26.50;31.10;;;;;;4960828;28;20983;-58
2021/04/23 09:40:21;;;;;;;13.48;6.32;;;26.40;30.50;;;;;;4958463;28;20402;-58
2021/04/23 09:43:01;;;;;;;13.10;5.40;;;26.20;31.00;;;;;;4958497;28;20463;-58
2021/04/23 09:45:30;;;;;;;12.90;6.53;;;27.00;30.10;;;;;;4960885;28;20813;-59
2021/04/23 09:47:56;;;;;;;16.00;6.45;;;26.80;30.10;;;;;;4958594;28;20417;-60
2021/04/23 09:50:36;;;;;;;13.27;6.37;;;26.30;30.80;;;;;;4960039;28;20397;-59
2021/04/23 09:53:02;;;;;;;15.90;6.68;;;25.50;31.60;;;;;;4959210;28;20748;-62
2021/04/23 09:55:31;;;;;;;14.52;6.65;;;25.30;31.90;;;;;;4958499;28;20393;-62
2021/04/23 09:58:01;;;;;;;15.82;6.60;;;25.60;31.60;;;;;;4958320;28;20416;-60
2021/04/23 10:00:30;;;;;;;12.20;5.80;;;25.30;31.80;;;;;;4952321;28;20405;-61
2021/04/23 10:02:58;;;;;;;12.73;6.78;;;25.00;32.30;;;;;;4962390;28;20401;-62
2021/04/23 10:05:47;;;;;;;12.80;6.20;;;25.60;32.00;;;;;;4960839;28;20456;-59
2021/04/23 10:08:26;;;;;;;10.97;6.27;;;26.20;30.90;;;;;;4958623;28;20427;-59
2021/04/23 10:10:57;;;;;;;15.05;6.43;;;25.90;30.60;;;;;;4956607;28;20394;-60
2021/04/23 10:13:31;;;;;;;11.38;6.20;;;24.70;32.80;;;;;;4958141;28;20896;-61
2021/04/23 10:15:57;;;;;;;13.48;5.63;;;25.30;30.70;;;;;;4958890;28;20470;-61
2021/04/23 10:18:23;;;;;;;15.60;7.60;;;24.90;31.00;;;;;;4954686;28;20406;-61
2021/04/23 10:20:51;;;;;;;14.90;7.00;;;25.00;32.40;;;;;;4954027;28;20443;-58
2021/04/23 10:23:21;;;;;;;13.57;6.60;;;25.00;31.50;;;;;;4949163;28;20819;-58
2021/04/23 10:25:48;;;;;;;13.60;6.90;;;23.40;32.20;;;;;;4949408;28;20390;-60
2021/04/23 10:28:20;;;;;;;13.02;6.00;;;23.30;33.10;;;;;;4954606;28;20451;-59
2021/04/23 10:30:47;;;;;;;13.10;6.90;;;21.80;34.40;;;;;;4959749;28;20390;-60
2021/04/23 10:33:15;;;;;;;13.10;6.93;;;22.00;33.80;;;;;;4957820;28;20391;-60
2021/04/23 10:35:43;;;;;;;11.73;5.97;;;21.90;34.30;;;;;;4959412;28;20385;-60
2021/04/23 10:38:14;;;;;;;13.40;6.22;;;21.70;33.80;;;;;;4956883;28;20928;-60
2021/04/23 10:40:44;;;;;;;12.40;6.68;;;21.30;34.70;;;;;;4957407;28;20434;-59
2021/04/23 10:43:17;;;;;;;15.37;6.97;;;21.10;34.70;;;;;;4955281;28;20400;-61
2021/04/23 10:45:59;;;;;;;12.32;6.75;;;20.50;36.40;;;;;;4957077;28;20410;-61
2021/04/23 10:48:42;;;;;;;14.27;6.68;;;20.70;35.20;;;;;;4957053;28;20491;-62
2021/04/23 10:51:29;;;;;;;13.82;6.30;;;20.60;35.80;;;;;;4950729;28;20463;-61
2021/04/23 10:54:08;;;;;;;15.88;5.82;;;20.00;35.10;;;;;;4958422;28;20428;-61
2021/04/23 10:56:37;;;;;;;13.38;6.40;;;19.90;36.50;;;;;;4951376;28;20787;-64
2021/04/23 10:59:21;;;;;;;14.70;6.20;;;20.10;37.40;;;;;;4957566;28;20467;-61
2021/04/23 11:01:48;;;;;;;17.20;6.40;;;20.10;37.10;;;;;;4959621;28;20394;-61
2021/04/23 11:04:16;;;;;;;14.05;6.63;;;19.50;38.20;;;;;;4962549;28;20541;-62
2021/04/23 11:07:03;;;;;;;13.60;6.55;;;19.50;38.80;;;;;;4963441;28;21090;-60
2021/04/23 11:09:29;;;;;;;14.85;6.60;;;19.90;38.20;;;;;;4962687;28;20416;-60
2021/04/23 11:12:11;;;;;;;13.47;6.50;;;19.80;38.00;;;;;;4967331;28;20418;-61
2021/04/23 11:14:38;;;;;;;16.45;6.70;;;19.30;37.90;;;;;;4955563;28;20428;-62
2021/04/23 11:17:16;;;;;;;13.73;7.00;;;18.80;38.50;;;;;;4951215;28;20422;-61
2021/04/23 11:19:44;;;;;;;14.55;6.47;;;19.00;39.10;;;;;;4957473;28;20814;-61
2021/04/23 11:22:15;;;;;;;15.68;7.45;;;19.00;39.10;;;;;;4953747;28;20394;-62
2021/04/23 11:25:01;;;;;;;15.65;6.60;;;19.30;38.80;;;;;;4956333;28;20405;-62
2021/04/23 11:27:27;;;;;;;13.75;6.57;;;19.20;38.30;;;;;;4948663;28;20389;-61
2021/04/23 11:29:53;;;;;;;12.90;5.72;;;19.30;38.10;;;;;;4947941;28;20864;-63
2021/04/23 11:32:20;;;;;;;10.85;6.05;;;19.60;37.00;;;;;;4948886;28;20468;-62
2021/04/23 11:35:09;;;;;;;13.57;6.10;;;19.80;36.20;;;;;;4948620;28;20883;-63
2021/04/23 11:37:40;;;;;;;12.18;5.70;;;19.80;35.30;;;;;;4947766;28;20500;-62
2021/04/23 11:40:38;;;;;;;12.95;6.40;;;19.30;35.20;;;;;;4948061;28;20398;-62
2021/04/23 11:43:05;;;;;;;13.77;5.50;;;19.10;36.30;;;;;;4946117;28;20403;-63
2021/04/23 11:45:36;;;;;;;14.02;5.63;;;19.10;35.80;;;;;;4948527;28;20393;-63
2021/04/23 11:48:06;;;;;;;12.95;6.00;;;19.50;35.90;;;;;;4946591;29;20453;-62
2021/04/23 11:50:38;;;;;;;13.40;6.03;;;19.70;34.90;;;;;;4948543;28;20429;-63
2021/04/23 11:53:26;;;;;;;12.00;5.00;;;19.60;34.10;;;;;;4963442;28;20411;-63
2021/04/23 11:55:54;;;;;;;13.10;4.63;;;19.50;33.50;;;;;;4966492;28;20438;-61
2021/04/23 11:58:25;;;;;;;10.97;4.70;;;19.40;32.70;;;;;;4960600;28;20404;-61
2021/04/23 12:00:54;;;;;;;10.07;4.35;;;19.70;32.60;;;;;;4949967;28;20949;-60
2021/04/23 12:03:20;;;;;;;10.75;5.18;;;19.50;30.80;;;;;;4956481;28;20424;-61
2021/04/23 12:05:47;;;;;;;10.57;5.18;;;19.20;31.20;;;;;;4949575;28;20441;-59
2021/04/23 12:08:17;;;;;;;12.47;4.97;;;19.10;31.60;;;;;;4955771;28;20418;-59
2021/04/23 12:10:45;;;;;;;10.13;5.07;;;19.20;32.30;;;;;;4967366;28;20443;-59
2021/04/23 12:13:32;;;;;;;12.70;5.70;;;18.90;31.40;;;;;;4961768;28;20633;-59
2021/04/23 12:16:00;;;;;;;12.23;5.20;;;18.50;32.10;;;;;;4946897;28;20393;-59
2021/04/23 12:18:28;;;;;;;10.90;5.20;;;18.90;32.70;;;;;;4963884;28;20751;-58
2021/04/23 12:20:55;;;;;;;11.40;5.00;;;19.00;32.30;;;;;;4967213;28;20389;-58
2021/04/23 12:23:23;;;;;;;11.43;4.93;;;19.10;32.30;;;;;;4967109;28;20464;-58
2021/04/23 12:25:55;;;;;;;10.30;4.88;;;18.70;30.90;;;;;;4956358;28;20481;-58
2021/04/23 12:28:22;;;;;;;9.52;4.45;;;19.00;31.90;;;;;;4961865;28;20400;-60
2021/04/23 12:30:51;;;;;;;10.93;4.95;;;19.20;31.40;;;;;;4969387;28;20420;-59
2021/04/23 12:33:18;;;;;;;10.50;4.07;;;19.30;31.60;;;;;;4970311;28;20388;-60
2021/04/23 12:35:45;;;;;;;13.05;5.60;;;19.40;30.50;;;;;;4970512;28;20719;-59
2021/04/23 12:38:13;;;;;;;11.98;5.50;;;19.40;32.00;;;;;;4969383;28;20504;-59
2021/04/23 12:40:44;;;;;;;11.38;6.00;;;19.10;34.30;;;;;;4970432;28;20399;-60
2021/04/23 12:43:19;;;;;;;14.23;5.80;;;19.10;34.80;;;;;;4963129;28;20870;-59
2021/04/23 12:45:51;;;;;;;11.85;5.10;;;19.30;34.70;;;;;;4956225;28;20394;-60
2021/04/23 12:48:19;;;;;;;11.35;5.57;;;19.60;34.30;;;;;;4953057;28;20473;-60